Flight Track Log - Related Links

Times and Time Zones

All times are in EDT time to prevent confusion due to time zone crossing. See the N960DL flight status page for this flight to view local times or setup timezone preferences in your user account.

Time Position Orientation Groundspeed Altitude Reporting Facility
EDT Latitude Longitude Course Direction KTS MPH feet Rate Location/Type
Sat 10:14:25 PM 33.6500 -84.4500 323° Northwest 164 189 2,100  Level Atlanta TRACON
Sat 10:15:13 PM 33.6667 -84.5167 287° West 240 276 3,000 2,222 Climbing Atlanta TRACON
Sat 10:16:13 PM 33.7000 -84.5833 301° West 285 328 6,100 2,980 Climbing Atlanta TRACON
Sat 10:17:00 PM 33.9463 -84.2796 320° Northwest  Level FlightAware Approximate
Sat 10:17:44 PM 33.8306 -84.5814 North 304 350 10,500  Level Atlanta Center
Sat 10:18:00 PM 34.0447 -84.3779 320° Northwest  Level FlightAware Approximate
Sat 10:18:44 PM 33.9286 -84.5844 359° North 328 377 11,800  Level Atlanta Center
Sat 10:19:00 PM 34.1486 -84.4607 323° Northwest  Level FlightAware Approximate
Sat 10:19:44 PM 34.0247 -84.5853 360° North 366 421 13,500  Level Atlanta Center
Sat 10:20:44 PM 34.1394 -84.5883 359° North 399 459 15,600 2,200 Climbing Atlanta Center
Sat 10:21:44 PM 34.2625 -84.5942 358° North 429 494 17,900 2,000 Climbing Atlanta Center
Sat 10:22:44 PM 34.3836 -84.6178 351° North 442 509 19,600 1,900 Climbing Atlanta Center
Sat 10:23:44 PM 34.5192 -84.6539 348° North 453 521 21,700 5,200 Climbing Atlanta Center
Sat 10:24:44 PM 34.6483 -84.6828 350° North 458 527 30,000 2,000 Climbing Atlanta Center
Sat 10:25:44 PM 34.7753 -84.7164 348° North 458 527 25,700 -1,250 Descending Atlanta Center
Sat 10:26:44 PM 34.9025 -84.7478 349° North 463 533 27,500 1,700 Climbing Atlanta Center
Sat 10:27:44 PM 35.0297 -84.7794 348° North 469 540 29,100 1,250 Climbing Atlanta Center
Sat 10:28:44 PM 35.1567 -84.8111 348° North 469 540 30,000 450 Climbing Atlanta Center
Sat 10:29:44 PM 35.2839 -84.8428 349° North 469 540 30,000  Level Atlanta Center
Sat 10:30:44 PM 35.4067 -84.8744 348° North 469 540 30,000  Level Atlanta Center
Sat 10:31:44 PM 35.5275 -84.9064 348° North 456 525 30,000  Level Atlanta Center
Sat 10:33:55 PM 35.8017 -84.9844 347° North 465 535 30,000  Level Indianapolis Center
Sat 10:34:56 PM 35.9300 -85.0142 349° North 470 541 30,000  Level Indianapolis Center
Sat 10:35:56 PM 36.0422 -85.0403 349° North 464 534 30,000  Level Indianapolis Center
Sat 10:36:57 PM 36.1653 -85.0694 349° North 450 518 30,000 -393 Level Indianapolis Center
Sat 10:37:58 PM 36.2892 -85.0981 349° North 451 519 29,200 -1,339 Descending Indianapolis Center
Sat 10:38:58 PM 36.4133 -85.1281 349° North 454 522 27,300 -1,686 Descending Indianapolis Center
Sat 10:39:59 PM 36.5386 -85.1575 349° North 458 527 25,800 -1,339 Descending Indianapolis Center
Sat 10:40:59 PM 36.6667 -85.1522 North 464 534 24,600 -1,041 Descending Indianapolis Center
Sat 10:42:00 PM 36.7919 -85.1286 North 456 525 23,700 -1,082 Descending Indianapolis Center
Sat 10:43:01 PM 36.9142 -85.1042 North 448 516 22,400 -1,140 Descending Indianapolis Center
Sat 10:44:01 PM 37.0433 -85.0769 10° North 443 510 21,400 -1,091 Descending Indianapolis Center
Sat 10:45:02 PM 37.1633 -85.0547 North 436 502 20,200 -1,770 Descending Indianapolis Center
Sat 10:46:03 PM 37.2806 -85.0314 North 426 490 17,800 -2,281 Descending Indianapolis Center
Sat 10:47:03 PM 37.3931 -85.0086 North 410 472 15,600 -2,033 Descending Indianapolis Center
Sat 10:48:04 PM 37.5019 -84.9864 North 396 456 13,700 -1,983 Descending Indianapolis Center
Sat 10:49:04 PM 37.6039 -84.9675 North 374 430 11,600 -1,537 Descending Indianapolis Center
Sat 10:50:05 PM 37.7036 -85.0203 337° Northwest 362 417 10,600 -787 Descending Indianapolis Center
Sat 10:51:06 PM 37.7692 -85.1111 312° West 350 403 10,000 -298 Descending Indianapolis Center
Sat 10:52:06 PM 37.8342 -85.1969 314° West 337 388 10,000 -248 Level Indianapolis Center
Sat 10:53:07 PM 37.8739 -85.2839 300° West 297 342 9,500 -843 Descending Indianapolis Center
Sat 10:54:07 PM 37.9131 -85.3733 299° West 290 334 8,300 -1,438 Descending Indianapolis Center
Sat 10:55:08 PM 37.9514 -85.4614 299° West 286 329 6,600 -1,770 Descending Indianapolis Center
Sat 10:56:09 PM 37.9903 -85.5458 300° West 280 322 4,700 -1,869 Descending Indianapolis Center

Login

Don't have an account? Register now (free) for customized features, flight alerts, and more!